Time;durP1;ratioP1;P1;durP2;ratioP2;P2;SDS_P1;SDS_P2;PMS_P1;PMS_P2;Temp;Humidity;BMP_temperature;BMP_pressure;BME280_temperature;BME280_humidity;BME280_pressure;Samples;Min_cycle;Max_cycle;Signal;HPM_P1;HPM_P2
2022/11/03 00:01:37;;;;;;;15.32;6.95;;;;;;;;;;4976708;28;20035;-83
2022/11/03 00:04:04;;;;;;;12.63;5.88;;;;;;;;;;4975924;28;20055;-83
2022/11/03 00:06:30;;;;;;;12.60;5.78;;;;;;;;;;4958821;28;20031;-83
2022/11/03 00:09:00;;;;;;;10.10;5.72;;;;;;;;;;4976312;28;20118;-83
2022/11/03 00:11:26;;;;;;;10.18;5.18;;;;;;;;;;4979219;28;20031;-83
2022/11/03 00:13:52;;;;;;;7.00;3.92;;;;;;;;;;4979258;28;20435;-84
2022/11/03 00:16:17;;;;;;;5.35;3.03;;;;;;;;;;4979177;28;20045;-83
2022/11/03 00:18:42;;;;;;;7.05;4.07;;;;;;;;;;4978155;28;20411;-83
2022/11/03 00:21:10;;;;;;;5.50;3.75;;;;;;;;;;4979528;28;20046;-83
2022/11/03 00:23:38;;;;;;;6.40;3.35;;;;;;;;;;4994022;28;20081;-82
2022/11/03 00:26:09;;;;;;;4.88;3.30;;;;;;;;;;4977603;28;20035;-83
2022/11/03 00:28:35;;;;;;;5.43;3.30;;;;;;;;;;4976505;28;20042;-83
2022/11/03 00:31:04;;;;;;;6.28;3.20;;;;;;;;;;4977953;28;20125;-83
2022/11/03 00:33:34;;;;;;;9.27;3.90;;;;;;;;;;4977616;28;20064;-83
2022/11/03 00:36:00;;;;;;;7.57;3.40;;;;;;;;;;4976957;28;20031;-83
2022/11/03 00:38:27;;;;;;;4.97;3.30;;;;;;;;;;4976285;28;20114;-83
2022/11/03 00:40:53;;;;;;;8.23;3.88;;;;;;;;;;4977113;28;20039;-83
2022/11/03 00:43:23;;;;;;;7.95;4.30;;;;;;;;;;4977135;28;20030;-83
2022/11/03 00:45:48;;;;;;;11.18;4.40;;;;;;;;;;4975287;28;20751;-83
2022/11/03 00:48:29;;;;;;;7.55;4.35;;;;;;;;;;4977243;28;20043;-83
2022/11/03 00:51:12;;;;;;;6.95;3.70;;;;;;;;;;4977358;28;20035;-83
2022/11/03 00:53:43;;;;;;;5.60;3.33;;;;;;;;;;4977350;28;20078;-83
2022/11/03 00:56:12;;;;;;;6.05;3.08;;;;;;;;;;4977300;28;20377;-83
2022/11/03 00:58:39;;;;;;;8.55;3.55;;;;;;;;;;4977483;28;20087;-83
2022/11/03 01:01:15;;;;;;;7.05;3.55;;;;;;;;;;4978080;28;20043;-83
2022/11/03 01:06:48;;;;;;;5.72;3.53;;;;;;;;;;4977652;28;20034;-83
2022/11/03 01:09:12;;;;;;;7.78;3.63;;;;;;;;;;4977167;28;20381;-83
2022/11/03 01:11:43;;;;;;;7.70;3.75;;;;;;;;;;4977967;28;20046;-83
2022/11/03 01:14:14;;;;;;;9.75;4.68;;;;;;;;;;4976265;28;20484;-83
2022/11/03 01:16:40;;;;;;;7.90;4.20;;;;;;;;;;4977401;28;20026;-83
2022/11/03 01:19:06;;;;;;;5.65;3.30;;;;;;;;;;4977250;28;20484;-83
2022/11/03 01:21:31;;;;;;;5.28;3.40;;;;;;;;;;4977402;28;20066;-82
2022/11/03 01:24:00;;;;;;;5.63;3.60;;;;;;;;;;4976484;28;20038;-80
2022/11/03 01:26:26;;;;;;;7.10;3.92;;;;;;;;;;4975874;28;20400;-83
2022/11/03 01:28:52;;;;;;;5.55;3.60;;;;;;;;;;4977042;28;20054;-83
2022/11/03 01:31:20;;;;;;;5.70;3.13;;;;;;;;;;4977318;28;20042;-83
2022/11/03 01:33:46;;;;;;;5.88;2.95;;;;;;;;;;4977531;28;20030;-83
2022/11/03 01:36:13;;;;;;;5.07;2.75;;;;;;;;;;4976612;28;20045;-83
2022/11/03 01:38:39;;;;;;;6.38;2.80;;;;;;;;;;4975429;28;20070;-82
2022/11/03 01:41:07;;;;;;;4.75;2.90;;;;;;;;;;4976642;28;20062;-83
2022/11/03 01:43:34;;;;;;;5.15;2.60;;;;;;;;;;4976716;28;20039;-83
2022/11/03 01:46:26;;;;;;;5.35;2.63;;;;;;;;;;4975331;28;20038;-83
2022/11/03 01:49:09;;;;;;;5.20;2.80;;;;;;;;;;4976637;28;20129;-83
2022/11/03 01:51:35;;;;;;;5.75;3.00;;;;;;;;;;4976573;28;20566;-83
2022/11/03 01:54:08;;;;;;;5.97;3.35;;;;;;;;;;4976195;28;20027;-83
2022/11/03 01:56:37;;;;;;;5.68;3.30;;;;;;;;;;4976760;28;20070;-83
2022/11/03 01:59:03;;;;;;;4.25;2.63;;;;;;;;;;4975114;28;20129;-83
2022/11/03 02:01:30;;;;;;;5.30;3.10;;;;;;;;;;4976513;28;20102;-83
2022/11/03 02:04:11;;;;;;;6.65;3.15;;;;;;;;;;4976373;28;20444;-81
2022/11/03 02:06:37;;;;;;;5.25;3.28;;;;;;;;;;4975318;28;20044;-83
2022/11/03 02:09:08;;;;;;;4.47;2.72;;;;;;;;;;4974885;28;20106;-83
2022/11/03 02:14:19;;;;;;;5.28;2.90;;;;;;;;;;4974874;28;20035;-84
2022/11/03 02:16:51;;;;;;;6.13;2.88;;;;;;;;;;4975879;28;20467;-83
2022/11/03 02:19:30;;;;;;;6.70;3.17;;;;;;;;;;4976134;28;20035;-83
2022/11/03 02:22:16;;;;;;;8.65;3.83;;;;;;;;;;4974763;28;20062;-83
2022/11/03 02:24:56;;;;;;;4.00;2.80;;;;;;;;;;4975462;28;20045;-83
2022/11/03 02:27:22;;;;;;;5.00;2.60;;;;;;;;;;4975822;28;20089;-82
2022/11/03 02:29:48;;;;;;;4.65;2.88;;;;;;;;;;4974891;28;20109;-83
2022/11/03 02:32:30;;;;;;;6.05;2.90;;;;;;;;;;4975558;28;20039;-82
2022/11/03 02:35:14;;;;;;;4.90;2.80;;;;;;;;;;4975214;28;20102;-82
2022/11/03 02:37:47;;;;;;;6.05;3.13;;;;;;;;;;4975711;28;20052;-82
2022/11/03 02:40:17;;;;;;;5.38;3.20;;;;;;;;;;4975564;28;20058;-82
2022/11/03 02:42:47;;;;;;;7.53;3.20;;;;;;;;;;4975761;28;20042;-82
2022/11/03 02:45:16;;;;;;;4.47;2.70;;;;;;;;;;4974853;28;20516;-82
2022/11/03 02:47:42;;;;;;;4.82;2.67;;;;;;;;;;4974767;28;20061;-82
2022/11/03 02:50:09;;;;;;;4.28;2.53;;;;;;;;;;4975286;28;20035;-82
2022/11/03 02:52:39;;;;;;;6.00;2.72;;;;;;;;;;4975434;28;20046;-82
2022/11/03 02:55:23;;;;;;;5.95;2.70;;;;;;;;;;4974691;28;20027;-83
2022/11/03 02:58:14;;;;;;;7.80;2.72;;;;;;;;;;4974053;28;20473;-83
2022/11/03 03:01:13;;;;;;;9.90;3.15;;;;;;;;;;4970697;28;20064;-82
2022/11/03 03:03:43;;;;;;;5.07;2.72;;;;;;;;;;4973650;28;20114;-83
2022/11/03 03:06:18;;;;;;;5.65;2.60;;;;;;;;;;4972810;28;20127;-82
2022/11/03 03:08:49;;;;;;;6.28;2.70;;;;;;;;;;4974576;28;20411;-83
2022/11/03 03:11:15;;;;;;;4.32;2.50;;;;;;;;;;4974222;28;20035;-82
2022/11/03 03:13:42;;;;;;;4.25;2.50;;;;;;;;;;4972443;28;20122;-82
2022/11/03 03:16:17;;;;;;;4.20;2.67;;;;;;;;;;4973932;28;20053;-83
2022/11/03 03:18:50;;;;;;;4.38;2.63;;;;;;;;;;4975624;28;20039;-83
2022/11/03 03:21:26;;;;;;;5.03;2.78;;;;;;;;;;4976196;28;20034;-83
2022/11/03 03:24:23;;;;;;;5.63;2.80;;;;;;;;;;4976592;28;20122;-83
2022/11/03 03:26:49;;;;;;;6.57;2.80;;;;;;;;;;4975852;28;20407;-82
2022/11/03 03:29:25;;;;;;;5.80;2.72;;;;;;;;;;4975599;28;20038;-83
2022/11/03 03:31:55;;;;;;;8.50;2.95;;;;;;;;;;4976196;28;20495;-83
2022/11/03 03:34:23;;;;;;;13.75;4.10;;;;;;;;;;4973265;28;20031;-83
2022/11/03 03:36:50;;;;;;;13.27;3.35;;;;;;;;;;4975082;28;20495;-83
2022/11/03 03:39:18;;;;;;;9.15;3.67;;;;;;;;;;4974679;28;20522;-83
2022/11/03 03:41:46;;;;;;;11.82;3.85;;;;;;;;;;4973989;28;20101;-83
2022/11/03 03:44:12;;;;;;;10.68;3.33;;;;;;;;;;4976449;28;20026;-83
2022/11/03 03:46:43;;;;;;;7.00;3.70;;;;;;;;;;4978903;28;20034;-82
2022/11/03 03:49:09;;;;;;;8.15;3.78;;;;;;;;;;4978603;28;20070;-83
2022/11/03 03:51:35;;;;;;;9.20;3.85;;;;;;;;;;4978976;28;20039;-83
2022/11/03 03:54:01;;;;;;;28.48;4.50;;;;;;;;;;4978245;28;20403;-82
2022/11/03 03:56:40;;;;;;;9.15;3.78;;;;;;;;;;4978962;28;20026;-83
2022/11/03 03:59:05;;;;;;;7.13;4.40;;;;;;;;;;4981284;28;20574;-83
2022/11/03 04:01:31;;;;;;;17.20;5.10;;;;;;;;;;4998329;28;20034;-83
2022/11/03 04:03:56;;;;;;;24.13;4.93;;;;;;;;;;4996530;28;20076;-83
2022/11/03 04:06:22;;;;;;;12.82;4.15;;;;;;;;;;4997999;28;20034;-83
2022/11/03 04:08:47;;;;;;;7.13;3.92;;;;;;;;;;4997467;28;20073;-83
2022/11/03 04:22:17;;;;;;;;;;;;;;;;;;4998465;28;20202;-81
2022/11/03 04:24:44;;;;;;;;;;;;;;;;;;4997741;28;19971;-81
2022/11/03 04:27:17;;;;;;;4.68;2.72;;;;;;;;;;4996362;28;19960;-82
2022/11/03 04:29:43;;;;;;;;;;;;;;;;;;4998000;28;20560;-80
2022/11/03 04:32:14;;;;;;;3.85;2.78;;;;;;;;;;4997705;28;19913;-82
2022/11/03 04:34:40;;;;;;;5.45;2.70;;;;;;;;;;4997603;28;20033;-83
2022/11/03 04:37:10;;;;;;;4.20;2.70;;;;;;;;;;4997536;28;20038;-83
2022/11/03 04:39:36;;;;;;;10.15;3.03;;;;;;;;;;4998298;28;20042;-83
2022/11/03 04:42:11;;;;;;;4.68;3.10;;;;;;;;;;4997798;28;20038;-83
2022/11/03 04:44:36;;;;;;;3.85;2.78;;;;;;;;;;4996998;28;20061;-82
2022/11/03 04:47:08;;;;;;;14.13;3.28;;;;;;;;;;4997147;28;20412;-82
2022/11/03 04:49:34;;;;;;;17.75;3.30;;;;;;;;;;4997246;28;20034;-83
2022/11/03 04:51:59;;;;;;;23.42;3.78;;;;;;;;;;4996897;28;20041;-83
2022/11/03 04:54:25;;;;;;;6.45;3.60;;;;;;;;;;4996218;28;20042;-82
2022/11/03 04:56:51;;;;;;;16.20;4.68;;;;;;;;;;4994984;28;20062;-83
2022/11/03 04:59:16;;;;;;;5.75;4.10;;;;;;;;;;4995778;28;20258;-83
2022/11/03 05:01:43;;;;;;;15.13;6.07;;;;;;;;;;5010975;28;20080;-83
2022/11/03 05:04:15;;;;;;;41.03;8.75;;;;;;;;;;4993589;28;20377;-82
2022/11/03 05:06:43;;;;;;;12.15;5.78;;;;;;;;;;4995668;28;20034;-83
2022/11/03 05:09:23;;;;;;;18.45;4.65;;;;;;;;;;4995285;28;20034;-82
2022/11/03 05:11:49;;;;;;;26.30;5.20;;;;;;;;;;4994425;28;20034;-83
2022/11/03 05:14:18;;;;;;;35.45;4.53;;;;;;;;;;4993994;28;20182;-82
2022/11/03 05:16:45;;;;;;;21.42;6.97;;;;;;;;;;5010478;28;20034;-83
2022/11/03 05:19:30;;;;;;;15.98;4.47;;;;;;;;;;4996160;28;20038;-82
2022/11/03 05:21:57;;;;;;;23.30;4.07;;;;;;;;;;4996278;28;20034;-83
2022/11/03 05:24:24;;;;;;;15.32;3.63;;;;;;;;;;4995236;28;20050;-82
2022/11/03 05:26:50;;;;;;;56.15;4.63;;;;;;;;;;4995533;28;20036;-83
2022/11/03 05:29:22;;;;;;;58.42;5.10;;;;;;;;;;4995347;28;20113;-83
2022/11/03 05:31:51;;;;;;;91.68;5.25;;;;;;;;;;4995500;28;20068;-82
2022/11/03 05:34:19;;;;;;;42.28;4.13;;;;;;;;;;4994937;28;20033;-83
2022/11/03 05:36:44;;;;;;;13.82;3.85;;;;;;;;;;4994988;28;20392;-82
2022/11/03 05:39:16;;;;;;;35.58;4.30;;;;;;;;;;4995637;28;20044;-83
2022/11/03 05:41:41;;;;;;;55.97;4.10;;;;;;;;;;5011678;28;20168;-82
2022/11/03 05:44:36;;;;;;;62.28;4.05;;;;;;;;;;4995490;28;20105;-82
2022/11/03 05:47:07;;;;;;;29.17;3.38;;;;;;;;;;4995908;28;20042;-82
2022/11/03 05:49:33;;;;;;;53.20;4.22;;;;;;;;;;4996085;28;20042;-82
2022/11/03 05:51:59;;;;;;;30.38;3.78;;;;;;;;;;4995764;28;20027;-82
2022/11/03 05:54:28;;;;;;;6.40;3.40;;;;;;;;;;5009794;28;20045;-83
2022/11/03 05:56:55;;;;;;;7.07;3.42;;;;;;;;;;4994081;28;20041;-83
2022/11/03 05:59:26;;;;;;;7.32;3.40;;;;;;;;;;4995946;28;20046;-82
2022/11/03 06:01:53;;;;;;;13.25;4.93;;;;;;;;;;4995372;28;20041;-82
2022/11/03 06:04:36;;;;;;;17.67;4.80;;;;;;;;;;4993752;28;20043;-83
2022/11/03 06:07:24;;;;;;;6.67;3.43;;;;;;;;;;4994681;28;20035;-82
2022/11/03 06:09:52;;;;;;;9.93;3.42;;;;;;;;;;4995713;28;20046;-83
2022/11/03 06:12:19;;;;;;;6.57;3.60;;;;;;;;;;4994146;28;20451;-83
2022/11/03 06:14:45;;;;;;;6.25;3.67;;;;;;;;;;4994343;28;20463;-82
2022/11/03 06:17:31;;;;;;;5.22;3.58;;;;;;;;;;5010645;28;20514;-82
2022/11/03 06:19:59;;;;;;;8.32;3.45;;;;;;;;;;4994451;28;20038;-82
2022/11/03 06:22:36;;;;;;;4.78;3.70;;;;;;;;;;4993724;28;20080;-82
2022/11/03 06:25:13;;;;;;;17.60;4.53;;;;;;;;;;4994517;28;20034;-82
2022/11/03 06:27:39;;;;;;;7.43;3.70;;;;;;;;;;4995078;28;20042;-82
2022/11/03 06:30:35;;;;;;;6.90;3.55;;;;;;;;;;4995565;28;20053;-82
2022/11/03 06:33:17;;;;;;;33.90;3.90;;;;;;;;;;4994502;28;20050;-82
2022/11/03 06:35:43;;;;;;;24.67;5.10;;;;;;;;;;4994374;28;20073;-83
2022/11/03 06:38:29;;;;;;;29.40;4.18;;;;;;;;;;4993988;28;20034;-83
2022/11/03 06:40:55;;;;;;;33.05;4.43;;;;;;;;;;4993936;28;20034;-82
2022/11/03 06:43:24;;;;;;;26.75;4.93;;;;;;;;;;4994989;28;20041;-82
2022/11/03 06:46:04;;;;;;;25.95;5.40;;;;;;;;;;4994842;28;20065;-83
2022/11/03 06:48:33;;;;;;;20.05;6.18;;;;;;;;;;4994792;28;20081;-82
2022/11/03 06:51:00;;;;;;;10.30;5.13;;;;;;;;;;4993703;28;20089;-82
2022/11/03 06:53:30;;;;;;;8.10;4.82;;;;;;;;;;4994862;28;20034;-82
2022/11/03 06:55:55;;;;;;;16.73;4.13;;;;;;;;;;4993105;28;20038;-82
2022/11/03 06:58:30;;;;;;;7.55;4.40;;;;;;;;;;4994709;28;20041;-82
2022/11/03 07:01:02;;;;;;;5.47;3.47;;;;;;;;;;4995093;28;20042;-82
2022/11/03 07:03:34;;;;;;;10.77;4.30;;;;;;;;;;5009895;28;20518;-82
2022/11/03 07:06:23;;;;;;;7.22;4.07;;;;;;;;;;4993861;28;20084;-82
2022/11/03 07:08:51;;;;;;;5.57;3.25;;;;;;;;;;4994332;28;20034;-82
2022/11/03 07:11:24;;;;;;;5.88;3.35;;;;;;;;;;4995501;28;20029;-83
2022/11/03 07:14:15;;;;;;;4.18;3.10;;;;;;;;;;4992725;28;20383;-83
2022/11/03 07:16:44;;;;;;;8.23;3.47;;;;;;;;;;4989259;28;20042;-83
2022/11/03 07:19:18;;;;;;;12.95;7.15;;;;;;;;;;4993672;28;20149;-83
2022/11/03 07:21:47;;;;;;;9.95;5.78;;;;;;;;;;4993717;28;20059;-82
2022/11/03 07:24:24;;;;;;;7.05;4.93;;;;;;;;;;4992913;28;20057;-83
2022/11/03 07:27:01;;;;;;;5.25;3.33;;;;;;;;;;5008764;28;20072;-83
2022/11/03 07:29:30;;;;;;;4.47;3.20;;;;;;;;;;4993859;28;20089;-82
2022/11/03 07:31:58;;;;;;;5.95;3.22;;;;;;;;;;4994017;28;20030;-83
2022/11/03 07:34:30;;;;;;;6.90;3.03;;;;;;;;;;4993172;28;20053;-84
2022/11/03 07:36:56;;;;;;;4.25;2.90;;;;;;;;;;4993455;28;20038;-83
2022/11/03 07:39:22;;;;;;;6.63;2.90;;;;;;;;;;4993204;28;20728;-84
2022/11/03 07:41:49;;;;;;;7.57;3.50;;;;;;;;;;4993192;28;20495;-83
2022/11/03 07:44:19;;;;;;;5.13;3.00;;;;;;;;;;5007619;28;20065;-83
2022/11/03 07:46:45;;;;;;;6.35;3.40;;;;;;;;;;4993073;28;20034;-83
2022/11/03 07:49:24;;;;;;;6.45;3.28;;;;;;;;;;4993005;28;20026;-83
2022/11/03 07:51:51;;;;;;;4.45;3.00;;;;;;;;;;4993105;28;20044;-82
2022/11/03 07:54:32;;;;;;;5.95;3.30;;;;;;;;;;4992109;28;20030;-82
2022/11/03 07:56:57;;;;;;;5.30;3.50;;;;;;;;;;4993263;28;20117;-82
2022/11/03 07:59:27;;;;;;;4.45;3.20;;;;;;;;;;4994555;28;20058;-87
2022/11/03 08:01:54;;;;;;;6.38;3.60;;;;;;;;;;5001030;28;20042;-80
2022/11/03 08:04:26;;;;;;;8.98;3.50;;;;;;;;;;5005750;28;20056;-79
2022/11/03 08:06:51;;;;;;;5.45;3.38;;;;;;;;;;4993233;28;20045;-83
2022/11/03 08:09:17;;;;;;;5.70;3.40;;;;;;;;;;4993962;28;20406;-83
2022/11/03 08:11:43;;;;;;;5.50;2.85;;;;;;;;;;4993030;28;20034;-82
2022/11/03 08:14:09;;;;;;;5.15;3.15;;;;;;;;;;4992012;28;20118;-82
2022/11/03 08:16:35;;;;;;;7.20;3.47;;;;;;;;;;4993713;28;20109;-83
2022/11/03 08:19:01;;;;;;;5.82;2.97;;;;;;;;;;4993832;28;20455;-82
2022/11/03 08:21:27;;;;;;;3.78;2.72;;;;;;;;;;4993880;28;20088;-83
2022/11/03 08:23:53;;;;;;;3.72;2.60;;;;;;;;;;4993714;28;20038;-82
2022/11/03 08:26:18;;;;;;;3.25;2.80;;;;;;;;;;4992849;28;20069;-82
2022/11/03 08:28:44;;;;;;;4.25;2.80;;;;;;;;;;4993270;28;20039;-82
2022/11/03 08:31:09;;;;;;;3.83;3.05;;;;;;;;;;5009785;28;20121;-81
2022/11/03 08:33:35;;;;;;;5.15;2.75;;;;;;;;;;4996562;28;20102;-82
2022/11/03 08:36:03;;;;;;;3.50;2.88;;;;;;;;;;4996119;28;20443;-85
2022/11/03 08:38:28;;;;;;;4.45;2.78;;;;;;;;;;4996698;28;20110;-82
2022/11/03 08:40:54;;;;;;;4.22;2.80;;;;;;;;;;4996415;28;20062;-87
2022/11/03 08:43:20;;;;;;;5.38;2.97;;;;;;;;;;4996860;28;20129;-83
2022/11/03 08:45:46;;;;;;;3.97;3.10;;;;;;;;;;4995678;28;20125;-82
2022/11/03 08:48:12;;;;;;;5.47;3.25;;;;;;;;;;4995377;28;20030;-82
2022/11/03 08:50:38;;;;;;;7.18;2.70;;;;;;;;;;4996500;28;20042;-82
2022/11/03 08:53:03;;;;;;;5.18;2.75;;;;;;;;;;4995156;28;20034;-83
2022/11/03 08:55:29;;;;;;;7.30;2.90;;;;;;;;;;4995527;28;20058;-82
2022/11/03 08:57:54;;;;;;;5.70;2.85;;;;;;;;;;4995151;28;20054;-82
2022/11/03 09:00:20;;;;;;;5.85;2.97;;;;;;;;;;4994953;28;20038;-83
2022/11/03 09:02:45;;;;;;;6.40;3.00;;;;;;;;;;4996130;28;20054;-83
2022/11/03 09:05:11;;;;;;;5.75;3.30;;;;;;;;;;4994211;28;20130;-83
2022/11/03 09:07:40;;;;;;;5.78;3.20;;;;;;;;;;4995958;28;20113;-82
2022/11/03 09:10:08;;;;;;;5.68;3.03;;;;;;;;;;4996303;28;20030;-82
2022/11/03 09:12:34;;;;;;;40.97;22.50;;;;;;;;;;4996003;28;20045;-82
2022/11/03 09:14:59;;;;;;;8.15;3.85;;;;;;;;;;4993829;28;20173;-83
2022/11/03 09:17:24;;;;;;;7.90;2.90;;;;;;;;;;4994532;28;20639;-82
2022/11/03 09:19:50;;;;;;;6.93;3.63;;;;;;;;;;4995324;28;20034;-83
2022/11/03 09:22:16;;;;;;;7.78;3.42;;;;;;;;;;4995743;28;20034;-83
2022/11/03 09:24:41;;;;;;;7.28;3.10;;;;;;;;;;4995091;28;20088;-82
2022/11/03 09:27:07;;;;;;;7.28;3.60;;;;;;;;;;4994634;28;20038;-81
2022/11/03 09:29:32;;;;;;;6.78;3.25;;;;;;;;;;4995863;28;20121;-82
2022/11/03 09:31:58;;;;;;;7.90;3.10;;;;;;;;;;4994549;28;20027;-82
2022/11/03 09:34:24;;;;;;;6.00;3.25;;;;;;;;;;4995200;28;20681;-82
2022/11/03 09:36:50;;;;;;;5.78;2.80;;;;;;;;;;4996363;28;20499;-82
2022/11/03 09:39:16;;;;;;;4.88;3.05;;;;;;;;;;4995848;28;20030;-83
2022/11/03 09:41:42;;;;;;;7.43;2.95;;;;;;;;;;4995779;28;20030;-83
2022/11/03 09:44:08;;;;;;;8.98;3.33;;;;;;;;;;4995867;28;20042;-85
2022/11/03 09:46:34;;;;;;;7.00;2.95;;;;;;;;;;4996091;28;20034;-82
2022/11/03 09:49:01;;;;;;;5.93;2.67;;;;;;;;;;4996292;28;20176;-83
2022/11/03 09:51:27;;;;;;;5.18;2.72;;;;;;;;;;4994911;28;20471;-83
2022/11/03 09:53:56;;;;;;;6.20;3.10;;;;;;;;;;4995540;28;20057;-82
2022/11/03 09:56:23;;;;;;;7.15;2.80;;;;;;;;;;4995475;28;20042;-83
2022/11/03 09:58:49;;;;;;;3.97;2.42;;;;;;;;;;4993951;28;20065;-86
2022/11/03 10:01:14;;;;;;;4.05;2.70;;;;;;;;;;4994020;28;20558;-83
2022/11/03 10:03:40;;;;;;;4.55;2.72;;;;;;;;;;4995109;28;20581;-82
2022/11/03 10:06:06;;;;;;;6.00;3.10;;;;;;;;;;4994745;28;20045;-82
2022/11/03 10:08:34;;;;;;;6.28;2.95;;;;;;;;;;4995398;28;20030;-82
2022/11/03 10:11:01;;;;;;;4.05;2.50;;;;;;;;;;4994988;28;20050;-83
2022/11/03 10:13:30;;;;;;;6.10;3.75;;;;;;;;;;4993462;28;20550;-83
2022/11/03 10:15:57;;;;;;;6.40;2.90;;;;;;;;;;4994587;28;20046;-83
2022/11/03 10:18:23;;;;;;;8.00;3.13;;;;;;;;;;4995038;28;20046;-82
2022/11/03 10:20:48;;;;;;;4.00;2.78;;;;;;;;;;4992793;28;20088;-83
2022/11/03 10:23:14;;;;;;;8.38;3.10;;;;;;;;;;4994784;28;20034;-83
2022/11/03 10:25:43;;;;;;;5.30;3.20;;;;;;;;;;4994642;28;20518;-83
2022/11/03 10:28:23;;;;;;;5.45;2.90;;;;;;;;;;4994979;28;20088;-83
2022/11/03 10:31:19;;;;;;;5.93;2.80;;;;;;;;;;4995048;28;20384;-83
2022/11/03 10:33:54;;;;;;;6.93;3.22;;;;;;;;;;4989361;28;20104;-83
2022/11/03 10:36:28;;;;;;;4.38;2.70;;;;;;;;;;4996350;28;20042;-83
2022/11/03 10:38:54;;;;;;;5.13;2.90;;;;;;;;;;4996779;28;20125;-83
2022/11/03 10:41:20;;;;;;;9.75;3.10;;;;;;;;;;5055930;23;20075;-82
2022/11/03 10:44:15;;;;;;;5.32;2.92;;;;;;;;;;5038473;28;20033;-82
2022/11/03 10:47:04;;;;;;;6.55;2.80;;;;;;;;;;5039423;28;20072;-81
2022/11/03 10:49:31;;;;;;;6.80;3.08;;;;;;;;;;5021617;28;20037;-85
2022/11/03 10:52:21;;;;;;;5.70;3.00;;;;;;;;;;5039142;28;20048;-82
2022/11/03 10:54:49;;;;;;;5.72;2.70;;;;;;;;;;5037090;28;20037;-81
2022/11/03 10:57:15;;;;;;;8.52;3.47;;;;;;;;;;5019439;28;20119;-83
2022/11/03 10:59:42;;;;;;;5.78;3.38;;;;;;;;;;5020385;28;20413;-83
2022/11/03 11:02:19;;;;;;;10.93;3.28;;;;;;;;;;5019848;28;20033;-83
2022/11/03 11:04:47;;;;;;;7.40;3.13;;;;;;;;;;5036849;28;20038;-82
2022/11/03 11:07:43;;;;;;;11.73;3.42;;;;;;;;;;5020804;28;20036;-82
2022/11/03 11:10:25;;;;;;;4.60;2.70;;;;;;;;;;5031161;28;20055;-83
2022/11/03 11:13:22;;;;;;;5.10;3.05;;;;;;;;;;5020113;28;20596;-83
2022/11/03 11:15:58;;;;;;;9.13;3.05;;;;;;;;;;5037796;28;20117;-84
2022/11/03 11:18:30;;;;;;;6.25;3.33;;;;;;;;;;5037604;28;20056;-83
2022/11/03 11:21:19;;;;;;;7.88;3.08;;;;;;;;;;5035631;28;20033;-83
2022/11/03 11:23:46;;;;;;;7.15;2.95;;;;;;;;;;5005259;28;20048;-82
2022/11/03 11:26:18;;;;;;;7.20;3.30;;;;;;;;;;5035170;28;20030;-84
2022/11/03 11:29:09;;;;;;;8.60;3.28;;;;;;;;;;5000557;28;20591;-83
2022/11/03 11:31:38;;;;;;;5.85;3.22;;;;;;;;;;5000481;28;20490;-83
2022/11/03 11:34:11;;;;;;;7.28;3.13;;;;;;;;;;5016523;28;20033;-83
2022/11/03 11:36:38;;;;;;;7.00;3.22;;;;;;;;;;5001062;28;20072;-83
2022/11/03 11:39:10;;;;;;;9.13;3.25;;;;;;;;;;5034151;28;20037;-84
2022/11/03 11:42:13;;;;;;;8.65;3.10;;;;;;;;;;5034425;28;20041;-83
2022/11/03 11:44:38;;;;;;;7.00;2.90;;;;;;;;;;5019678;28;20038;-84
2022/11/03 11:47:31;;;;;;;7.03;3.80;;;;;;;;;;5019611;28;20144;-83
2022/11/03 11:50:06;;;;;;;6.63;3.35;;;;;;;;;;5002713;28;20116;-84
2022/11/03 11:52:33;;;;;;;8.85;2.90;;;;;;;;;;5036086;28;20080;-83
2022/11/03 11:54:59;;;;;;;7.25;3.30;;;;;;;;;;5018614;28;20017;-84
2022/11/03 11:57:28;;;;;;;7.05;3.50;;;;;;;;;;5037805;28;20030;-85
2022/11/03 11:59:53;;;;;;;7.72;3.50;;;;;;;;;;5024306;28;20037;-84
2022/11/03 12:02:28;;;;;;;10.27;4.10;;;;;;;;;;5037420;28;20049;-83
2022/11/03 12:05:02;;;;;;;9.55;3.90;;;;;;;;;;5015761;28;20029;-83
2022/11/03 12:07:35;;;;;;;5.80;3.90;;;;;;;;;;5005418;28;20048;-82
2022/11/03 12:10:30;;;;;;;6.93;3.67;;;;;;;;;;5022199;28;20183;-82
2022/11/03 12:13:00;;;;;;;6.72;3.72;;;;;;;;;;5003186;28;20908;-84
2022/11/03 12:15:54;;;;;;;9.02;4.50;;;;;;;;;;5039412;28;20506;-83
2022/11/03 12:18:39;;;;;;;8.50;4.35;;;;;;;;;;5038561;28;20068;-82
2022/11/03 12:21:42;;;;;;;7.35;4.70;;;;;;;;;;5020324;28;20045;-83
2022/11/03 12:24:25;;;;;;;9.10;4.60;;;;;;;;;;5037630;28;20522;-81
2022/11/03 12:26:50;;;;;;;10.68;4.32;;;;;;;;;;5020562;28;20030;-81
2022/11/03 12:29:15;;;;;;;9.95;4.85;;;;;;;;;;5020387;28;20095;-82
2022/11/03 12:31:41;;;;;;;6.70;4.55;;;;;;;;;;5038658;28;20115;-82
2022/11/03 12:34:06;;;;;;;8.57;5.18;;;;;;;;;;5038237;28;20033;-82
2022/11/03 12:36:32;;;;;;;7.47;5.03;;;;;;;;;;5039488;28;20068;-83
2022/11/03 12:38:57;;;;;;;8.38;4.78;;;;;;;;;;5038816;28;20017;-83
2022/11/03 12:41:24;;;;;;;10.65;5.20;;;;;;;;;;5038607;28;20034;-82
2022/11/03 12:43:51;;;;;;;8.80;5.28;;;;;;;;;;5039885;28;20421;-82
2022/11/03 12:46:18;;;;;;;8.57;4.97;;;;;;;;;;5039825;28;20041;-84
2022/11/03 12:48:44;;;;;;;9.57;5.22;;;;;;;;;;5040429;28;20128;-83
2022/11/03 12:51:14;;;;;;;9.57;5.15;;;;;;;;;;5040821;28;20056;-82
2022/11/03 12:53:40;;;;;;;13.48;4.97;;;;;;;;;;5041158;28;20052;-82
2022/11/03 12:56:06;;;;;;;7.57;4.72;;;;;;;;;;5005699;28;20033;-83
2022/11/03 12:58:32;;;;;;;9.02;5.18;;;;;;;;;;5005584;28;20034;-84
2022/11/03 13:00:58;;;;;;;9.55;5.07;;;;;;;;;;5021198;28;20452;-84
2022/11/03 13:03:23;;;;;;;6.55;4.75;;;;;;;;;;5037991;28;20485;-82
2022/11/03 13:05:49;;;;;;;10.75;5.20;;;;;;;;;;5038240;28;20040;-83
2022/11/03 13:08:14;;;;;;;7.28;4.90;;;;;;;;;;5005695;28;20048;-83
2022/11/03 13:10:40;;;;;;;7.97;4.53;;;;;;;;;;5021733;28;20482;-84
2022/11/03 13:13:05;;;;;;;10.27;5.10;;;;;;;;;;5020601;28;20076;-82
2022/11/03 13:15:31;;;;;;;7.15;4.85;;;;;;;;;;5039281;28;20030;-82
2022/11/03 13:17:56;;;;;;;6.43;4.40;;;;;;;;;;5040092;28;20549;-82
2022/11/03 13:20:22;;;;;;;9.20;5.05;;;;;;;;;;5022324;28;20060;-83
2022/11/03 13:22:47;;;;;;;9.55;5.07;;;;;;;;;;5022347;28;20029;-82
2022/11/03 13:25:13;;;;;;;9.25;5.25;;;;;;;;;;5039127;28;20037;-82
2022/11/03 13:27:38;;;;;;;10.07;4.90;;;;;;;;;;5040317;28;20193;-82
2022/11/03 13:30:06;;;;;;;12.27;5.13;;;;;;;;;;5021716;28;20037;-83
2022/11/03 13:32:31;;;;;;;11.52;5.05;;;;;;;;;;5039416;28;20083;-82
2022/11/03 13:34:57;;;;;;;10.65;5.40;;;;;;;;;;5039270;28;20033;-82
2022/11/03 13:37:23;;;;;;;9.60;4.85;;;;;;;;;;5040192;28;20034;-83
2022/11/03 13:39:48;;;;;;;7.60;4.90;;;;;;;;;;5021112;28;20021;-81
2022/11/03 13:42:13;;;;;;;7.45;4.80;;;;;;;;;;5039481;28;20045;-84
2022/11/03 13:44:39;;;;;;;8.65;5.28;;;;;;;;;;5038773;28;20048;-85
2022/11/03 13:47:04;;;;;;;10.27;5.00;;;;;;;;;;5039599;28;20061;-82
2022/11/03 13:49:30;;;;;;;7.35;5.05;;;;;;;;;;5039398;28;20091;-81
2022/11/03 13:51:55;;;;;;;8.25;4.97;;;;;;;;;;5023135;28;20091;-85
2022/11/03 13:54:21;;;;;;;10.68;5.60;;;;;;;;;;5023176;28;20061;-86
2022/11/03 13:56:46;;;;;;;9.23;5.40;;;;;;;;;;5043347;28;20128;-85
2022/11/03 13:59:12;;;;;;;7.95;5.07;;;;;;;;;;5037965;28;20076;-83
2022/11/03 14:01:37;;;;;;;9.48;5.35;;;;;;;;;;5035822;28;20041;-83
2022/11/03 14:04:03;;;;;;;9.90;5.80;;;;;;;;;;5035938;28;20029;-83
2022/11/03 14:06:28;;;;;;;9.52;5.50;;;;;;;;;;5037052;28;20029;-83
2022/11/03 14:08:54;;;;;;;8.25;5.75;;;;;;;;;;5019243;28;20034;-84
2022/11/03 14:14:03;;;;;;;11.20;5.75;;;;;;;;;;5035721;28;20051;-84
2022/11/03 14:16:29;;;;;;;9.98;5.25;;;;;;;;;;5019571;28;20482;-84
2022/11/03 14:18:54;;;;;;;10.07;5.25;;;;;;;;;;5041164;28;20043;-82
2022/11/03 14:21:20;;;;;;;10.73;5.22;;;;;;;;;;5046319;28;20029;-82
2022/11/03 14:23:45;;;;;;;10.30;5.60;;;;;;;;;;5040558;28;20553;-81
2022/11/03 14:26:10;;;;;;;10.02;5.07;;;;;;;;;;5021969;28;20029;-81
2022/11/03 14:28:36;;;;;;;10.30;5.30;;;;;;;;;;5038680;28;20045;-82
2022/11/03 14:31:04;;;;;;;9.15;5.53;;;;;;;;;;5006226;28;20041;-82
2022/11/03 14:33:29;;;;;;;8.45;5.20;;;;;;;;;;5040074;28;20030;-81
2022/11/03 14:35:55;;;;;;;6.18;4.68;;;;;;;;;;5005443;28;20025;-81
2022/11/03 14:38:20;;;;;;;9.60;5.15;;;;;;;;;;5006495;28;20498;-82
2022/11/03 14:43:30;;;;;;;7.43;4.68;;;;;;;;;;5021731;28;20437;-81
2022/11/03 14:45:55;;;;;;;11.20;4.57;;;;;;;;;;5038117;28;20601;-82
2022/11/03 14:48:21;;;;;;;10.13;5.40;;;;;;;;;;5020402;28;20025;-85
2022/11/03 14:50:46;;;;;;;10.00;4.38;;;;;;;;;;5037623;28;20049;-83
2022/11/03 14:53:11;;;;;;;8.50;4.55;;;;;;;;;;5037732;28;20041;-84
2022/11/03 14:55:37;;;;;;;7.40;4.65;;;;;;;;;;5002943;28;20033;-83
2022/11/03 14:58:02;;;;;;;6.88;4.70;;;;;;;;;;5002515;28;20068;-84
2022/11/03 15:00:28;;;;;;;8.40;4.60;;;;;;;;;;5002794;28;20064;-83
2022/11/03 15:02:53;;;;;;;6.50;3.80;;;;;;;;;;5018960;28;20526;-83
2022/11/03 15:08:03;;;;;;;5.90;4.20;;;;;;;;;;5041157;28;20029;-83
2022/11/03 15:10:28;;;;;;;5.18;3.58;;;;;;;;;;5042116;28;20017;-83
2022/11/03 15:12:54;;;;;;;5.10;3.60;;;;;;;;;;5041357;28;20390;-83
2022/11/03 15:15:19;;;;;;;15.15;4.68;;;;;;;;;;5039671;28;20112;-82
2022/11/03 15:17:45;;;;;;;10.30;5.00;;;;;;;;;;5041098;28;20036;-83
2022/11/03 15:20:10;;;;;;;11.52;5.78;;;;;;;;;;5024032;28;20029;-84
2022/11/03 15:22:36;;;;;;;8.23;5.00;;;;;;;;;;5041611;28;20037;-83